San Roque, Argentina
Current Conditions -  °F | °C
As of 7:00 AM on Thursday 18 Dec 2014 (Local Time) from SAME Reporting Station
Broken Clouds Broken Clouds  
Wind Chill: 72°   Ceiling: 4000
Heat Index: 72°   Visibility: 6mi
Dew Point: 48°   Wind: 5mph
Humidity: 43%   Direction: 180°S
Pressure: 29.97"   Gusts: NA
Location:  33.05°S, 68.58°W
Report Text: SAME 181000Z 18004KT 9999 BKN040TCU 22/09 Q1015
Loading
Personal Weather Stations






























Interactive Weather Map New forecast layout! Learn more

10-Day Weather Forecast

Advertisements
Track Severe Weather on mobile